sensor_id;sensor_type;location;lat;lon;timestamp;temperature;humidity
39033;DHT22;24794;51.982;5.878;2023-05-07T00:00:11;16.70;99.90
39033;DHT22;24794;51.982;5.878;2023-05-07T00:01:11;16.70;99.90
39033;DHT22;24794;51.982;5.878;2023-05-07T00:02:12;16.70;99.90
39033;DHT22;24794;51.982;5.878;2023-05-07T00:03:12;16.70;99.90
39033;DHT22;24794;51.982;5.878;2023-05-07T00:04:14;16.70;99.90
39033;DHT22;24794;51.982;5.878;2023-05-07T00:05:14;16.70;99.90
39033;DHT22;24794;51.982;5.878;2023-05-07T00:06:15;16.70;99.90
39033;DHT22;24794;51.982;5.878;2023-05-07T00:07:15;16.70;99.90
39033;DHT22;24794;51.982;5.878;2023-05-07T00:08:16;16.70;99.90
39033;DHT22;24794;51.982;5.878;2023-05-07T00:09:16;16.70;99.90
39033;DHT22;24794;51.982;5.878;2023-05-07T00:10:17;16.70;99.90
39033;DHT22;24794;51.982;5.878;2023-05-07T00:11:17;16.70;99.90
39033;DHT22;24794;51.982;5.878;2023-05-07T00:12:18;16.60;99.90
39033;DHT22;24794;51.982;5.878;2023-05-07T00:13:18;16.60;99.90
39033;DHT22;24794;51.982;5.878;2023-05-07T00:14:19;16.60;99.90
39033;DHT22;24794;51.982;5.878;2023-05-07T00:15:20;16.60;99.90
39033;DHT22;24794;51.982;5.878;2023-05-07T00:16:20;16.60;99.90
39033;DHT22;24794;51.982;5.878;2023-05-07T00:17:21;16.60;99.90
39033;DHT22;24794;51.982;5.878;2023-05-07T00:18:21;16.60;99.90
39033;DHT22;24794;51.982;5.878;2023-05-07T00:19:22;16.70;99.90
39033;DHT22;24794;51.982;5.878;2023-05-07T00:20:23;16.70;99.90
39033;DHT22;24794;51.982;5.878;2023-05-07T00:21:24;16.70;99.90
39033;DHT22;24794;51.982;5.878;2023-05-07T00:22:26;16.70;99.90
39033;DHT22;24794;51.982;5.878;2023-05-07T00:23:27;16.70;99.90
39033;DHT22;24794;51.982;5.878;2023-05-07T00:24:28;16.70;99.90
39033;DHT22;24794;51.982;5.878;2023-05-07T00:25:28;16.70;99.90
39033;DHT22;24794;51.982;5.878;2023-05-07T00:26:29;16.70;99.90
39033;DHT22;24794;51.982;5.878;2023-05-07T00:27:29;16.70;99.90
39033;DHT22;24794;51.982;5.878;2023-05-07T00:28:30;16.70;99.90
39033;DHT22;24794;51.982;5.878;2023-05-07T00:29:30;16.70;99.90
39033;DHT22;24794;51.982;5.878;2023-05-07T00:30:31;16.70;99.90
39033;DHT22;24794;51.982;5.878;2023-05-07T00:31:32;16.70;99.90
39033;DHT22;24794;51.982;5.878;2023-05-07T00:32:32;16.70;99.90
39033;DHT22;24794;51.982;5.878;2023-05-07T00:33:33;16.60;99.90
39033;DHT22;24794;51.982;5.878;2023-05-07T00:34:33;16.60;99.90
39033;DHT22;24794;51.982;5.878;2023-05-07T00:35:34;16.60;99.90
39033;DHT22;24794;51.982;5.878;2023-05-07T00:36:34;16.60;99.90
39033;DHT22;24794;51.982;5.878;2023-05-07T00:37:35;16.60;99.90
39033;DHT22;24794;51.982;5.878;2023-05-07T00:38:36;16.60;99.90
39033;DHT22;24794;51.982;5.878;2023-05-07T00:39:36;16.60;99.90
39033;DHT22;24794;51.982;5.878;2023-05-07T00:40:37;16.60;99.90
39033;DHT22;24794;51.982;5.878;2023-05-07T00:41:37;16.60;99.90
39033;DHT22;24794;51.982;5.878;2023-05-07T00:42:38;16.60;99.90
39033;DHT22;24794;51.982;5.878;2023-05-07T00:43:38;16.60;99.90
39033;DHT22;24794;51.982;5.878;2023-05-07T00:44:39;16.60;99.90
39033;DHT22;24794;51.982;5.878;2023-05-07T00:45:39;16.60;99.90
39033;DHT22;24794;51.982;5.878;2023-05-07T00:46:40;16.60;99.90
39033;DHT22;24794;51.982;5.878;2023-05-07T00:47:41;16.60;99.90
39033;DHT22;24794;51.982;5.878;2023-05-07T00:48:42;16.60;99.90
39033;DHT22;24794;51.982;5.878;2023-05-07T00:49:44;16.60;99.90
39033;DHT22;24794;51.982;5.878;2023-05-07T00:50:45;16.60;99.90
39033;DHT22;24794;51.982;5.878;2023-05-07T00:51:46;16.60;99.90
39033;DHT22;24794;51.982;5.878;2023-05-07T00:52:47;16.60;99.90
39033;DHT22;24794;51.982;5.878;2023-05-07T00:53:48;16.60;99.90
39033;DHT22;24794;51.982;5.878;2023-05-07T00:54:48;16.60;99.90
39033;DHT22;24794;51.982;5.878;2023-05-07T00:55:49;16.60;99.90
39033;DHT22;24794;51.982;5.878;2023-05-07T00:56:49;16.50;99.90
39033;DHT22;24794;51.982;5.878;2023-05-07T00:57:50;16.50;99.90
39033;DHT22;24794;51.982;5.878;2023-05-07T00:58:51;16.50;99.90
39033;DHT22;24794;51.982;5.878;2023-05-07T00:59:52;16.50;99.90
39033;DHT22;24794;51.982;5.878;2023-05-07T01:00:52;16.50;99.90
39033;DHT22;24794;51.982;5.878;2023-05-07T01:01:53;16.50;99.90
39033;DHT22;24794;51.982;5.878;2023-05-07T01:02:54;16.50;99.90
39033;DHT22;24794;51.982;5.878;2023-05-07T01:03:54;16.50;99.90
39033;DHT22;24794;51.982;5.878;2023-05-07T01:04:55;16.50;99.90
39033;DHT22;24794;51.982;5.878;2023-05-07T01:05:57;16.50;99.90
39033;DHT22;24794;51.982;5.878;2023-05-07T01:07:01;16.50;99.90
39033;DHT22;24794;51.982;5.878;2023-05-07T01:08:02;16.50;99.90
39033;DHT22;24794;51.982;5.878;2023-05-07T01:09:03;16.40;99.90
39033;DHT22;24794;51.982;5.878;2023-05-07T01:10:05;16.40;99.90
39033;DHT22;24794;51.982;5.878;2023-05-07T01:11:07;16.40;99.90
39033;DHT22;24794;51.982;5.878;2023-05-07T01:12:08;16.40;99.90
39033;DHT22;24794;51.982;5.878;2023-05-07T01:13:10;16.40;99.90
39033;DHT22;24794;51.982;5.878;2023-05-07T01:14:11;16.40;99.90
39033;DHT22;24794;51.982;5.878;2023-05-07T01:15:12;16.40;99.90
39033;DHT22;24794;51.982;5.878;2023-05-07T01:16:12;16.40;99.90
39033;DHT22;24794;51.982;5.878;2023-05-07T01:17:13;16.40;99.90
39033;DHT22;24794;51.982;5.878;2023-05-07T01:18:14;16.40;99.90
39033;DHT22;24794;51.982;5.878;2023-05-07T01:19:18;16.30;99.90
39033;DHT22;24794;51.982;5.878;2023-05-07T01:20:19;16.30;99.90
39033;DHT22;24794;51.982;5.878;2023-05-07T01:21:25;16.30;99.90
39033;DHT22;24794;51.982;5.878;2023-05-07T01:22:37;16.30;99.90
39033;DHT22;24794;51.982;5.878;2023-05-07T01:23:38;16.30;99.90
39033;DHT22;24794;51.982;5.878;2023-05-07T01:24:40;16.30;99.90
39033;DHT22;24794;51.982;5.878;2023-05-07T01:25:41;16.30;99.90
39033;DHT22;24794;51.982;5.878;2023-05-07T01:26:43;16.30;99.90
39033;DHT22;24794;51.982;5.878;2023-05-07T01:27:44;16.30;99.90
39033;DHT22;24794;51.982;5.878;2023-05-07T01:28:45;16.30;99.90
39033;DHT22;24794;51.982;5.878;2023-05-07T01:29:46;16.30;99.90
39033;DHT22;24794;51.982;5.878;2023-05-07T01:30:52;16.30;99.90
39033;DHT22;24794;51.982;5.878;2023-05-07T01:31:54;16.30;99.90
39033;DHT22;24794;51.982;5.878;2023-05-07T01:33:11;16.30;99.90
39033;DHT22;24794;51.982;5.878;2023-05-07T01:34:15;16.30;99.90
39033;DHT22;24794;51.982;5.878;2023-05-07T01:35:20;16.30;99.90
39033;DHT22;24794;51.982;5.878;2023-05-07T01:36:23;16.30;99.90
39033;DHT22;24794;51.982;5.878;2023-05-07T01:37:26;16.30;99.90
39033;DHT22;24794;51.982;5.878;2023-05-07T01:38:27;16.30;99.90
39033;DHT22;24794;51.982;5.878;2023-05-07T01:39:29;16.30;99.90
39033;DHT22;24794;51.982;5.878;2023-05-07T01:40:30;16.30;99.90
39033;DHT22;24794;51.982;5.878;2023-05-07T01:41:31;16.30;99.90
39033;DHT22;24794;51.982;5.878;2023-05-07T01:42:31;16.30;99.90
39033;DHT22;24794;51.982;5.878;2023-05-07T01:43:34;16.30;99.90
39033;DHT22;24794;51.982;5.878;2023-05-07T01:44:35;16.30;99.90
39033;DHT22;24794;51.982;5.878;2023-05-07T01:45:36;16.30;99.90
39033;DHT22;24794;51.982;5.878;2023-05-07T01:46:36;16.40;99.90
39033;DHT22;24794;51.982;5.878;2023-05-07T01:47:37;16.40;99.90
39033;DHT22;24794;51.982;5.878;2023-05-07T01:48:39;16.40;99.90
39033;DHT22;24794;51.982;5.878;2023-05-07T01:49:40;16.40;99.90
39033;DHT22;24794;51.982;5.878;2023-05-07T01:50:42;16.30;99.90
39033;DHT22;24794;51.982;5.878;2023-05-07T01:51:43;16.40;99.90
39033;DHT22;24794;51.982;5.878;2023-05-07T01:52:44;16.40;99.90
39033;DHT22;24794;51.982;5.878;2023-05-07T01:53:45;16.40;99.90
39033;DHT22;24794;51.982;5.878;2023-05-07T01:54:48;16.40;99.90
39033;DHT22;24794;51.982;5.878;2023-05-07T01:55:48;16.40;99.90
39033;DHT22;24794;51.982;5.878;2023-05-07T01:56:49;16.40;99.90
39033;DHT22;24794;51.982;5.878;2023-05-07T01:57:49;16.40;99.90
39033;DHT22;24794;51.982;5.878;2023-05-07T01:58:50;16.40;99.90
39033;DHT22;24794;51.982;5.878;2023-05-07T01:59:51;16.40;99.90
39033;DHT22;24794;51.982;5.878;2023-05-07T02:00:52;16.40;99.90
39033;DHT22;24794;51.982;5.878;2023-05-07T02:01:53;16.40;99.90
39033;DHT22;24794;51.982;5.878;2023-05-07T02:02:53;16.40;99.90
39033;DHT22;24794;51.982;5.878;2023-05-07T02:03:54;16.40;99.90
39033;DHT22;24794;51.982;5.878;2023-05-07T02:04:54;16.40;99.90
39033;DHT22;24794;51.982;5.878;2023-05-07T02:05:55;16.40;99.90
39033;DHT22;24794;51.982;5.878;2023-05-07T02:06:56;16.40;99.90
39033;DHT22;24794;51.982;5.878;2023-05-07T02:07:56;16.40;99.90
39033;DHT22;24794;51.982;5.878;2023-05-07T02:08:57;16.40;99.90
39033;DHT22;24794;51.982;5.878;2023-05-07T02:09:57;16.40;99.90
39033;DHT22;24794;51.982;5.878;2023-05-07T02:10:58;16.40;99.90
39033;DHT22;24794;51.982;5.878;2023-05-07T02:11:58;16.40;99.90
39033;DHT22;24794;51.982;5.878;2023-05-07T02:12:59;16.40;99.90
39033;DHT22;24794;51.982;5.878;2023-05-07T02:14:02;16.40;99.90
39033;DHT22;24794;51.982;5.878;2023-05-07T02:15:02;16.40;99.90
39033;DHT22;24794;51.982;5.878;2023-05-07T02:16:03;16.40;99.90
39033;DHT22;24794;51.982;5.878;2023-05-07T02:17:04;16.40;99.90
39033;DHT22;24794;51.982;5.878;2023-05-07T02:18:07;16.40;99.90
39033;DHT22;24794;51.982;5.878;2023-05-07T02:19:08;16.40;99.90
39033;DHT22;24794;51.982;5.878;2023-05-07T02:20:08;16.40;99.90
39033;DHT22;24794;51.982;5.878;2023-05-07T02:21:13;16.40;99.90
39033;DHT22;24794;51.982;5.878;2023-05-07T02:22:14;16.40;99.90
39033;DHT22;24794;51.982;5.878;2023-05-07T02:23:14;16.40;99.90
39033;DHT22;24794;51.982;5.878;2023-05-07T02:24:15;16.40;99.90
39033;DHT22;24794;51.982;5.878;2023-05-07T02:25:15;16.40;99.90
39033;DHT22;24794;51.982;5.878;2023-05-07T02:26:16;16.40;99.90
39033;DHT22;24794;51.982;5.878;2023-05-07T02:27:16;16.40;99.90
39033;DHT22;24794;51.982;5.878;2023-05-07T02:28:17;16.40;99.90
39033;DHT22;24794;51.982;5.878;2023-05-07T02:29:17;16.40;99.90
39033;DHT22;24794;51.982;5.878;2023-05-07T02:30:18;16.40;99.90
39033;DHT22;24794;51.982;5.878;2023-05-07T02:31:18;16.40;99.90
39033;DHT22;24794;51.982;5.878;2023-05-07T02:32:19;16.40;99.90
39033;DHT22;24794;51.982;5.878;2023-05-07T02:33:20;16.40;99.90
39033;DHT22;24794;51.982;5.878;2023-05-07T02:34:20;16.30;99.90
39033;DHT22;24794;51.982;5.878;2023-05-07T02:35:21;16.30;99.90
39033;DHT22;24794;51.982;5.878;2023-05-07T02:36:22;16.30;99.90
39033;DHT22;24794;51.982;5.878;2023-05-07T02:37:22;16.40;99.90
39033;DHT22;24794;51.982;5.878;2023-05-07T02:38:23;16.30;99.90
39033;DHT22;24794;51.982;5.878;2023-05-07T02:39:23;16.30;99.90
39033;DHT22;24794;51.982;5.878;2023-05-07T02:40:24;16.30;99.90
39033;DHT22;24794;51.982;5.878;2023-05-07T02:41:24;16.30;99.90
39033;DHT22;24794;51.982;5.878;2023-05-07T02:42:25;16.30;99.90
39033;DHT22;24794;51.982;5.878;2023-05-07T02:43:25;16.30;99.90
39033;DHT22;24794;51.982;5.878;2023-05-07T02:44:26;16.30;99.90
39033;DHT22;24794;51.982;5.878;2023-05-07T02:45:26;16.30;99.90
39033;DHT22;24794;51.982;5.878;2023-05-07T02:46:27;16.20;99.90
39033;DHT22;24794;51.982;5.878;2023-05-07T02:47:27;16.20;99.90
39033;DHT22;24794;51.982;5.878;2023-05-07T02:48:29;16.30;99.90
39033;DHT22;24794;51.982;5.878;2023-05-07T02:49:29;16.30;99.90
39033;DHT22;24794;51.982;5.878;2023-05-07T02:50:30;16.20;99.90
39033;DHT22;24794;51.982;5.878;2023-05-07T02:51:30;16.20;99.90
39033;DHT22;24794;51.982;5.878;2023-05-07T02:52:31;16.20;99.90
39033;DHT22;24794;51.982;5.878;2023-05-07T02:53:32;16.20;99.90
39033;DHT22;24794;51.982;5.878;2023-05-07T02:54:33;16.20;99.90
39033;DHT22;24794;51.982;5.878;2023-05-07T02:55:33;16.20;99.90
39033;DHT22;24794;51.982;5.878;2023-05-07T02:56:34;16.30;99.90
39033;DHT22;24794;51.982;5.878;2023-05-07T02:57:34;16.30;99.90
39033;DHT22;24794;51.982;5.878;2023-05-07T02:58:35;16.30;99.90
39033;DHT22;24794;51.982;5.878;2023-05-07T02:59:35;16.20;99.90
39033;DHT22;24794;51.982;5.878;2023-05-07T03:00:36;16.30;99.90
39033;DHT22;24794;51.982;5.878;2023-05-07T03:01:37;16.30;99.90
39033;DHT22;24794;51.982;5.878;2023-05-07T03:02:37;16.30;99.90
39033;DHT22;24794;51.982;5.878;2023-05-07T03:03:38;16.20;99.90
39033;DHT22;24794;51.982;5.878;2023-05-07T03:04:39;16.30;99.90
39033;DHT22;24794;51.982;5.878;2023-05-07T03:05:40;16.30;99.90
39033;DHT22;24794;51.982;5.878;2023-05-07T03:06:41;16.30;99.90
39033;DHT22;24794;51.982;5.878;2023-05-07T03:07:41;16.20;99.90
39033;DHT22;24794;51.982;5.878;2023-05-07T03:08:45;16.20;99.90
39033;DHT22;24794;51.982;5.878;2023-05-07T03:09:46;16.20;99.90
39033;DHT22;24794;51.982;5.878;2023-05-07T03:10:46;16.20;99.90
39033;DHT22;24794;51.982;5.878;2023-05-07T03:11:47;16.20;99.90
39033;DHT22;24794;51.982;5.878;2023-05-07T03:12:47;16.20;99.90
39033;DHT22;24794;51.982;5.878;2023-05-07T03:13:48;16.20;99.90
39033;DHT22;24794;51.982;5.878;2023-05-07T03:14:49;16.20;99.90
39033;DHT22;24794;51.982;5.878;2023-05-07T03:15:50;16.20;99.90
39033;DHT22;24794;51.982;5.878;2023-05-07T03:16:51;16.20;99.90
39033;DHT22;24794;51.982;5.878;2023-05-07T03:17:51;16.20;99.90
39033;DHT22;24794;51.982;5.878;2023-05-07T03:18:52;16.10;99.90
39033;DHT22;24794;51.982;5.878;2023-05-07T03:19:52;16.10;99.90
39033;DHT22;24794;51.982;5.878;2023-05-07T03:20:53;16.10;99.90
39033;DHT22;24794;51.982;5.878;2023-05-07T03:21:53;16.10;99.90
39033;DHT22;24794;51.982;5.878;2023-05-07T03:22:54;16.00;99.90
39033;DHT22;24794;51.982;5.878;2023-05-07T03:23:54;16.00;99.90
39033;DHT22;24794;51.982;5.878;2023-05-07T03:24:55;16.00;99.90
39033;DHT22;24794;51.982;5.878;2023-05-07T03:25:55;16.00;99.90
39033;DHT22;24794;51.982;5.878;2023-05-07T03:26:56;16.00;99.90
39033;DHT22;24794;51.982;5.878;2023-05-07T03:27:58;16.00;99.90
39033;DHT22;24794;51.982;5.878;2023-05-07T03:28:58;16.00;99.90
39033;DHT22;24794;51.982;5.878;2023-05-07T03:30:00;15.90;99.90
39033;DHT22;24794;51.982;5.878;2023-05-07T03:31:00;15.90;99.90
39033;DHT22;24794;51.982;5.878;2023-05-07T03:32:01;15.90;99.90
39033;DHT22;24794;51.982;5.878;2023-05-07T03:33:02;15.90;99.90
39033;DHT22;24794;51.982;5.878;2023-05-07T03:34:02;15.90;99.90
39033;DHT22;24794;51.982;5.878;2023-05-07T03:35:03;15.90;99.90
39033;DHT22;24794;51.982;5.878;2023-05-07T03:36:04;15.90;99.90
39033;DHT22;24794;51.982;5.878;2023-05-07T03:37:04;15.90;99.90
39033;DHT22;24794;51.982;5.878;2023-05-07T03:38:05;15.90;99.90
39033;DHT22;24794;51.982;5.878;2023-05-07T03:39:05;15.90;99.90
39033;DHT22;24794;51.982;5.878;2023-05-07T03:40:06;15.90;99.90
39033;DHT22;24794;51.982;5.878;2023-05-07T03:41:08;15.90;99.90
39033;DHT22;24794;51.982;5.878;2023-05-07T03:42:08;15.90;99.90
39033;DHT22;24794;51.982;5.878;2023-05-07T03:43:09;15.90;99.90
39033;DHT22;24794;51.982;5.878;2023-05-07T03:44:10;16.00;99.90
39033;DHT22;24794;51.982;5.878;2023-05-07T03:45:10;16.00;99.90
39033;DHT22;24794;51.982;5.878;2023-05-07T03:46:11;16.00;99.90
39033;DHT22;24794;51.982;5.878;2023-05-07T03:47:11;16.00;99.90
39033;DHT22;24794;51.982;5.878;2023-05-07T03:48:13;16.00;99.90
39033;DHT22;24794;51.982;5.878;2023-05-07T03:49:14;16.00;99.90
39033;DHT22;24794;51.982;5.878;2023-05-07T03:50:14;16.00;99.90
39033;DHT22;24794;51.982;5.878;2023-05-07T03:51:15;16.10;99.90
39033;DHT22;24794;51.982;5.878;2023-05-07T03:52:15;16.00;99.90
39033;DHT22;24794;51.982;5.878;2023-05-07T03:53:16;16.00;99.90
39033;DHT22;24794;51.982;5.878;2023-05-07T03:54:16;16.00;99.90
39033;DHT22;24794;51.982;5.878;2023-05-07T03:55:17;16.00;99.90
39033;DHT22;24794;51.982;5.878;2023-05-07T03:56:18;16.00;99.90
39033;DHT22;24794;51.982;5.878;2023-05-07T03:57:19;16.00;99.90
39033;DHT22;24794;51.982;5.878;2023-05-07T03:58:20;16.00;99.90
39033;DHT22;24794;51.982;5.878;2023-05-07T03:59:22;16.00;99.90
39033;DHT22;24794;51.982;5.878;2023-05-07T04:00:22;16.00;99.90
39033;DHT22;24794;51.982;5.878;2023-05-07T04:01:23;16.00;99.90
39033;DHT22;24794;51.982;5.878;2023-05-07T04:02:23;16.00;99.90
39033;DHT22;24794;51.982;5.878;2023-05-07T04:03:24;15.90;99.90
39033;DHT22;24794;51.982;5.878;2023-05-07T04:04:26;16.00;99.90
39033;DHT22;24794;51.982;5.878;2023-05-07T04:05:27;15.90;99.90
39033;DHT22;24794;51.982;5.878;2023-05-07T04:06:27;15.90;99.90
39033;DHT22;24794;51.982;5.878;2023-05-07T04:07:28;15.90;99.90
39033;DHT22;24794;51.982;5.878;2023-05-07T04:08:29;15.90;99.90
39033;DHT22;24794;51.982;5.878;2023-05-07T04:09:29;15.90;99.90
39033;DHT22;24794;51.982;5.878;2023-05-07T04:10:30;15.90;99.90
39033;DHT22;24794;51.982;5.878;2023-05-07T04:11:30;15.90;99.90
39033;DHT22;24794;51.982;5.878;2023-05-07T04:12:30;15.90;99.90
39033;DHT22;24794;51.982;5.878;2023-05-07T04:13:31;15.90;99.90
39033;DHT22;24794;51.982;5.878;2023-05-07T04:14:32;15.90;99.90
39033;DHT22;24794;51.982;5.878;2023-05-07T04:15:32;15.90;99.90
39033;DHT22;24794;51.982;5.878;2023-05-07T04:16:34;15.90;99.90
39033;DHT22;24794;51.982;5.878;2023-05-07T04:17:35;15.90;99.90
39033;DHT22;24794;51.982;5.878;2023-05-07T04:18:36;15.90;99.90
39033;DHT22;24794;51.982;5.878;2023-05-07T04:19:36;15.90;99.90
39033;DHT22;24794;51.982;5.878;2023-05-07T04:20:37;15.90;99.90
39033;DHT22;24794;51.982;5.878;2023-05-07T04:21:37;15.90;99.90
39033;DHT22;24794;51.982;5.878;2023-05-07T04:22:38;15.90;99.90
39033;DHT22;24794;51.982;5.878;2023-05-07T04:23:38;15.90;99.90
39033;DHT22;24794;51.982;5.878;2023-05-07T04:24:39;15.90;99.90
39033;DHT22;24794;51.982;5.878;2023-05-07T04:25:39;15.90;99.90
39033;DHT22;24794;51.982;5.878;2023-05-07T04:26:40;15.90;99.90
39033;DHT22;24794;51.982;5.878;2023-05-07T04:27:40;15.90;99.90
39033;DHT22;24794;51.982;5.878;2023-05-07T04:28:41;15.90;99.90
39033;DHT22;24794;51.982;5.878;2023-05-07T04:29:42;15.90;99.90
39033;DHT22;24794;51.982;5.878;2023-05-07T04:30:43;15.90;99.90
39033;DHT22;24794;51.982;5.878;2023-05-07T04:31:44;15.90;99.90
39033;DHT22;24794;51.982;5.878;2023-05-07T04:32:46;15.90;99.90
39033;DHT22;24794;51.982;5.878;2023-05-07T04:33:48;15.90;99.90
39033;DHT22;24794;51.982;5.878;2023-05-07T04:34:48;15.90;99.90
39033;DHT22;24794;51.982;5.878;2023-05-07T04:35:49;15.90;99.90
39033;DHT22;24794;51.982;5.878;2023-05-07T04:36:49;15.80;99.90
39033;DHT22;24794;51.982;5.878;2023-05-07T04:37:50;15.90;99.90
39033;DHT22;24794;51.982;5.878;2023-05-07T04:38:50;15.80;99.90
39033;DHT22;24794;51.982;5.878;2023-05-07T04:39:51;15.80;99.90
39033;DHT22;24794;51.982;5.878;2023-05-07T04:40:51;15.80;99.90
39033;DHT22;24794;51.982;5.878;2023-05-07T04:41:52;15.80;99.90
39033;DHT22;24794;51.982;5.878;2023-05-07T04:42:52;15.80;99.90
39033;DHT22;24794;51.982;5.878;2023-05-07T04:43:53;15.80;99.90
39033;DHT22;24794;51.982;5.878;2023-05-07T04:44:53;15.70;99.90
39033;DHT22;24794;51.982;5.878;2023-05-07T04:45:55;15.70;99.90
39033;DHT22;24794;51.982;5.878;2023-05-07T04:46:55;15.70;99.90
39033;DHT22;24794;51.982;5.878;2023-05-07T04:47:56;15.70;99.90
39033;DHT22;24794;51.982;5.878;2023-05-07T04:48:56;15.70;99.90
39033;DHT22;24794;51.982;5.878;2023-05-07T04:49:57;15.70;99.90
39033;DHT22;24794;51.982;5.878;2023-05-07T04:50:58;15.70;99.90
39033;DHT22;24794;51.982;5.878;2023-05-07T04:51:58;15.60;99.90
39033;DHT22;24794;51.982;5.878;2023-05-07T04:52:59;15.70;99.90
39033;DHT22;24794;51.982;5.878;2023-05-07T04:53:59;15.70;99.90
39033;DHT22;24794;51.982;5.878;2023-05-07T04:55:00;15.60;99.90
39033;DHT22;24794;51.982;5.878;2023-05-07T04:56:01;15.70;99.90
39033;DHT22;24794;51.982;5.878;2023-05-07T04:57:03;15.60;99.90
39033;DHT22;24794;51.982;5.878;2023-05-07T04:58:05;15.60;99.90
39033;DHT22;24794;51.982;5.878;2023-05-07T04:59:06;15.60;99.90
39033;DHT22;24794;51.982;5.878;2023-05-07T05:00:07;15.60;99.90
39033;DHT22;24794;51.982;5.878;2023-05-07T05:01:11;15.60;99.90
39033;DHT22;24794;51.982;5.878;2023-05-07T05:02:12;15.60;99.90
39033;DHT22;24794;51.982;5.878;2023-05-07T05:03:12;15.60;99.90
39033;DHT22;24794;51.982;5.878;2023-05-07T05:04:13;15.60;99.90
39033;DHT22;24794;51.982;5.878;2023-05-07T05:05:13;15.60;99.90
39033;DHT22;24794;51.982;5.878;2023-05-07T05:06:14;15.60;99.90
39033;DHT22;24794;51.982;5.878;2023-05-07T05:07:15;15.60;99.90
39033;DHT22;24794;51.982;5.878;2023-05-07T05:08:15;15.60;99.90
39033;DHT22;24794;51.982;5.878;2023-05-07T05:09:16;15.60;99.90
39033;DHT22;24794;51.982;5.878;2023-05-07T05:10:16;15.60;99.90
39033;DHT22;24794;51.982;5.878;2023-05-07T05:11:17;15.60;99.90
39033;DHT22;24794;51.982;5.878;2023-05-07T05:12:17;15.60;99.90
39033;DHT22;24794;51.982;5.878;2023-05-07T05:13:18;15.60;99.90
39033;DHT22;24794;51.982;5.878;2023-05-07T05:14:18;15.60;99.90
39033;DHT22;24794;51.982;5.878;2023-05-07T05:15:19;15.60;99.90
39033;DHT22;24794;51.982;5.878;2023-05-07T05:16:20;15.60;99.90
39033;DHT22;24794;51.982;5.878;2023-05-07T05:17:20;15.70;99.90
39033;DHT22;24794;51.982;5.878;2023-05-07T05:18:21;15.60;99.90
39033;DHT22;24794;51.982;5.878;2023-05-07T05:19:21;15.60;99.90
39033;DHT22;24794;51.982;5.878;2023-05-07T05:20:22;15.70;99.90
39033;DHT22;24794;51.982;5.878;2023-05-07T05:21:22;15.70;99.90
39033;DHT22;24794;51.982;5.878;2023-05-07T05:22:23;15.70;99.90
39033;DHT22;24794;51.982;5.878;2023-05-07T05:23:23;15.70;99.90
39033;DHT22;24794;51.982;5.878;2023-05-07T05:24:24;15.70;99.90
39033;DHT22;24794;51.982;5.878;2023-05-07T05:25:24;15.70;99.90
39033;DHT22;24794;51.982;5.878;2023-05-07T05:26:25;15.70;99.90
39033;DHT22;24794;51.982;5.878;2023-05-07T05:27:26;15.70;99.90
39033;DHT22;24794;51.982;5.878;2023-05-07T05:28:26;15.70;99.90
39033;DHT22;24794;51.982;5.878;2023-05-07T05:29:28;15.70;99.90
39033;DHT22;24794;51.982;5.878;2023-05-07T05:30:28;15.70;99.90
39033;DHT22;24794;51.982;5.878;2023-05-07T05:31:29;15.70;99.90
39033;DHT22;24794;51.982;5.878;2023-05-07T05:32:30;15.70;99.90
39033;DHT22;24794;51.982;5.878;2023-05-07T05:33:30;15.70;99.90
39033;DHT22;24794;51.982;5.878;2023-05-07T05:34:31;15.80;99.90
39033;DHT22;24794;51.982;5.878;2023-05-07T05:35:33;15.70;99.90
39033;DHT22;24794;51.982;5.878;2023-05-07T05:36:35;15.80;99.90
39033;DHT22;24794;51.982;5.878;2023-05-07T05:37:35;15.70;99.90
39033;DHT22;24794;51.982;5.878;2023-05-07T05:38:36;15.70;99.90
39033;DHT22;24794;51.982;5.878;2023-05-07T05:39:37;15.70;99.90
39033;DHT22;24794;51.982;5.878;2023-05-07T05:40:37;15.70;99.90
39033;DHT22;24794;51.982;5.878;2023-05-07T05:41:38;15.70;99.90
39033;DHT22;24794;51.982;5.878;2023-05-07T05:42:38;15.70;99.90
39033;DHT22;24794;51.982;5.878;2023-05-07T05:43:39;15.70;99.90
39033;DHT22;24794;51.982;5.878;2023-05-07T05:44:40;15.70;99.90
39033;DHT22;24794;51.982;5.878;2023-05-07T05:45:40;15.70;99.90
39033;DHT22;24794;51.982;5.878;2023-05-07T05:46:41;15.70;99.90
39033;DHT22;24794;51.982;5.878;2023-05-07T05:47:41;15.70;99.90
39033;DHT22;24794;51.982;5.878;2023-05-07T05:48:42;15.70;99.90
39033;DHT22;24794;51.982;5.878;2023-05-07T05:49:42;15.70;99.90
39033;DHT22;24794;51.982;5.878;2023-05-07T05:50:43;15.70;99.90
39033;DHT22;24794;51.982;5.878;2023-05-07T05:51:44;15.70;99.90
39033;DHT22;24794;51.982;5.878;2023-05-07T05:52:44;15.70;99.90
39033;DHT22;24794;51.982;5.878;2023-05-07T05:53:45;15.70;99.90
39033;DHT22;24794;51.982;5.878;2023-05-07T05:54:45;15.70;99.90
39033;DHT22;24794;51.982;5.878;2023-05-07T05:55:46;15.70;99.90
39033;DHT22;24794;51.982;5.878;2023-05-07T05:56:47;15.70;99.90
39033;DHT22;24794;51.982;5.878;2023-05-07T05:57:47;15.70;99.90
39033;DHT22;24794;51.982;5.878;2023-05-07T05:58:48;15.70;99.90
39033;DHT22;24794;51.982;5.878;2023-05-07T05:59:49;15.70;99.90
39033;DHT22;24794;51.982;5.878;2023-05-07T06:00:49;15.70;99.90
39033;DHT22;24794;51.982;5.878;2023-05-07T06:01:52;15.70;99.90
39033;DHT22;24794;51.982;5.878;2023-05-07T06:02:53;15.70;99.90
39033;DHT22;24794;51.982;5.878;2023-05-07T06:03:53;15.70;99.90
39033;DHT22;24794;51.982;5.878;2023-05-07T06:04:54;15.70;99.90
39033;DHT22;24794;51.982;5.878;2023-05-07T06:05:54;15.70;99.90
39033;DHT22;24794;51.982;5.878;2023-05-07T06:06:55;15.70;99.90
39033;DHT22;24794;51.982;5.878;2023-05-07T06:07:57;15.80;99.90
39033;DHT22;24794;51.982;5.878;2023-05-07T06:08:57;15.70;99.90
39033;DHT22;24794;51.982;5.878;2023-05-07T06:09:58;15.80;99.90
39033;DHT22;24794;51.982;5.878;2023-05-07T06:10:58;15.70;99.90
39033;DHT22;24794;51.982;5.878;2023-05-07T06:12:00;15.80;99.90
39033;DHT22;24794;51.982;5.878;2023-05-07T06:13:00;15.80;99.90
39033;DHT22;24794;51.982;5.878;2023-05-07T06:14:01;15.70;99.90
39033;DHT22;24794;51.982;5.878;2023-05-07T06:15:01;15.70;99.90
39033;DHT22;24794;51.982;5.878;2023-05-07T06:16:02;15.70;99.90
39033;DHT22;24794;51.982;5.878;2023-05-07T06:17:02;15.80;99.90
39033;DHT22;24794;51.982;5.878;2023-05-07T06:18:03;15.70;99.90
39033;DHT22;24794;51.982;5.878;2023-05-07T06:19:03;15.80;99.90
39033;DHT22;24794;51.982;5.878;2023-05-07T06:20:04;15.80;99.90
39033;DHT22;24794;51.982;5.878;2023-05-07T06:21:05;15.80;99.90
39033;DHT22;24794;51.982;5.878;2023-05-07T06:22:06;15.80;99.90
39033;DHT22;24794;51.982;5.878;2023-05-07T06:23:07;15.80;99.90
39033;DHT22;24794;51.982;5.878;2023-05-07T06:24:08;15.80;99.90